Josset — WDA7227 — position and weather

sailwx.info

Track history (hours):
 
Tides and Currents Weather Stations Pressure Air Temp Water Temp Dewpoint Dewpoint Depression Visibility Wind Speed Wind Dir Waves Ship Positions

Josset

Owner: C & J Marine Services, Inc., Berwick, LA. More information available from US FCC via Universal Licensing System and Coast Guard Vessel Documentation Center.

Last reported at 2017-Dec-17 10:58 UTC. Time now 2017-Dec-18 16:50 UTC.
Position N 29°32' W 090°48'.

Length 19 m; draft 3 m.

Type: Tug. MMSI: 366841020.

Date/timePositionNaut miles runAvg speedWind from/ knotsBaromVisibWave heightAir tempDewpointWater temp
2017-Dec-17 10:58N 29°32' W 090°48'2 4.3
2017-Dec-17 10:30N 29°32' W 090°46'2 4.2
2017-Dec-17 10:00N 29°34' W 090°45'2 3.5
2017-Dec-17 09:30N 29°35' W 090°43'2 3.1
2017-Dec-17 09:00N 29°36' W 090°43'1 2.9
2017-Dec-17 08:30N 29°36' W 090°41'2 3.9
2017-Dec-17 08:00N 29°36' W 090°39'2 3.9
2017-Dec-17 07:30N 29°35' W 090°37'2 3.7
2017-Dec-17 07:00N 29°34' W 090°35'2 3.8
2017-Dec-17 06:30N 29°34' W 090°33'2 4.0
2017-Dec-17 06:00N 29°34' W 090°30'  
2017-Dec-12 04:44N 30°03' W 090°34'28 1.2
2017-Dec-11 06:18N 29°38' W 090°21'2 5.2
2017-Dec-11 06:00N 29°36' W 090°22'1 1.8
2017-Dec-11 05:29N 29°35' W 090°22'3 4.8
2017-Dec-11 04:56N 29°33' W 090°24'2 3.9
2017-Dec-11 04:26N 29°33' W 090°26'2 4.6
2017-Dec-11 04:00N 29°34' W 090°28'3 5.3
2017-Dec-11 03:30N 29°34' W 090°31'3 5.1
2017-Dec-11 02:54N 29°34' W 090°35'2 4.6
2017-Dec-11 02:30N 29°35' W 090°37'2 4.6
2017-Dec-11 02:00N 29°36' W 090°39'2 4.7
2017-Dec-11 01:30N 29°37' W 090°41'1 2.8
2017-Dec-11 01:00N 29°36' W 090°43'2 3.4
2017-Dec-11 00:30N 29°34' W 090°43'2 4.1
2017-Dec-11 00:00N 29°33' W 090°45'0 0.5
2017-Dec-10 23:30N 29°33' W 090°45'0 0.0
2017-Dec-10 23:00N 29°33' W 090°45'0 0.1
2017-Dec-10 22:30N 29°33' W 090°45'0 0.1
2017-Dec-10 22:00N 29°33' W 090°45'2 3.6
2017-Dec-10 21:30N 29°32' W 090°47'67 3.0
2017-Dec-09 23:27N 29°49' W 092°02'3 4.8
2017-Dec-09 22:52N 29°48' W 092°04'2 5.7
2017-Dec-09 22:30N 29°48' W 092°07'3 5.8
2017-Dec-09 22:00N 29°47' W 092°10'1 1.8
2017-Dec-09 21:30N 29°47' W 092°11'0 0.1
2017-Dec-09 21:00N 29°47' W 092°11'0 0.0
2017-Dec-09 20:30N 29°47' W 092°11'0 0.1
2017-Dec-09 20:00N 29°47' W 092°11'1 2.9
2017-Dec-09 19:30N 29°47' W 092°13'2 3.2
2017-Dec-09 19:00N 29°48' W 092°14'1 2.2
2017-Dec-09 18:30N 29°48' W 092°15'3 5.4
2017-Dec-09 18:00N 29°50' W 092°18'3 5.3
2017-Dec-09 17:29N 29°51' W 092°21'38 4.6
2017-Dec-09 09:16N 29°56' W 093°04'1 4.4
2017-Dec-09 09:00N 29°56' W 093°05'2 4.8
2017-Dec-09 08:30N 29°56' W 093°08'2 4.5
2017-Dec-09 08:00N 29°57' W 093°10'3 5.1
2017-Dec-09 07:30N 29°59' W 093°12'2 4.8
2017-Dec-09 07:00N 30°01' W 093°14'1 2.2
2017-Dec-09 06:30N 30°02' W 093°15'2 3.2
2017-Dec-09 06:00N 30°03' W 093°16'2 3.7
2017-Dec-09 05:30N 30°05' W 093°17'1 2.1
2017-Dec-09 05:00N 30°05' W 093°18'1 1.5
2017-Dec-09 04:30N 30°06' W 093°18'2 3.4
2017-Dec-09 04:00N 30°05' W 093°20'1 1.2
2017-Dec-09 03:30N 30°05' W 093°20'1 2.6
2017-Dec-09 03:00N 30°04' W 093°21'1 1.9
2017-Dec-09 02:30N 30°04' W 093°22'2 4.6
2017-Dec-09 02:00N 30°04' W 093°25'2 4.7
2017-Dec-09 01:30N 30°04' W 093°28'3 5.4
2017-Dec-09 01:00N 30°04' W 093°31'3 5.6
2017-Dec-09 00:30N 30°04' W 093°34'2 4.6
2017-Dec-09 00:00N 30°04' W 093°37'74 2.1
2017-Dec-07 12:54N 29°34' W 094°55'3 6.6
2017-Dec-07 12:30N 29°36' W 094°57'3 6.2
2017-Dec-07 12:00N 29°39' W 094°58'3 6.5
2017-Dec-07 11:30N 29°42' W 094°59'  
Track history (hours):
 
Tides and Currents Weather Stations Pressure Air Temp Water Temp Dewpoint Dewpoint Depression Visibility Wind Speed Wind Dir Waves Ship Positions

Josset

Owner: C & J Marine Services, Inc., Berwick, LA. More information available from US FCC via Universal Licensing System and Coast Guard Vessel Documentation Center.

Last reported at 2017-Dec-17 10:58 UTC. Time now 2017-Dec-18 16:50 UTC.
Position N 29°32' W 090°48'.

Length 19 m; draft 3 m.

Type: Tug. MMSI: 366841020.

Date/timePositionNaut miles runAvg speedWind from/ knotsBaromVisibWave heightAir tempDewpointWater temp
2017-Dec-17 10:58N 29°32' W 090°48'2 4.3
2017-Dec-17 10:30N 29°32' W 090°46'2 4.2
2017-Dec-17 10:00N 29°34' W 090°45'2 3.5
2017-Dec-17 09:30N 29°35' W 090°43'2 3.1
2017-Dec-17 09:00N 29°36' W 090°43'1 2.9
2017-Dec-17 08:30N 29°36' W 090°41'2 3.9
2017-Dec-17 08:00N 29°36' W 090°39'2 3.9
2017-Dec-17 07:30N 29°35' W 090°37'2 3.7
2017-Dec-17 07:00N 29°34' W 090°35'2 3.8
2017-Dec-17 06:30N 29°34' W 090°33'2 4.0
2017-Dec-17 06:00N 29°34' W 090°30'  
2017-Dec-12 04:44N 30°03' W 090°34'28 1.2
2017-Dec-11 06:18N 29°38' W 090°21'2 5.2
2017-Dec-11 06:00N 29°36' W 090°22'1 1.8
2017-Dec-11 05:29N 29°35' W 090°22'3 4.8
2017-Dec-11 04:56N 29°33' W 090°24'2 3.9
2017-Dec-11 04:26N 29°33' W 090°26'2 4.6
2017-Dec-11 04:00N 29°34' W 090°28'3 5.3
2017-Dec-11 03:30N 29°34' W 090°31'3 5.1
2017-Dec-11 02:54N 29°34' W 090°35'2 4.6
2017-Dec-11 02:30N 29°35' W 090°37'2 4.6
2017-Dec-11 02:00N 29°36' W 090°39'2 4.7
2017-Dec-11 01:30N 29°37' W 090°41'1 2.8
2017-Dec-11 01:00N 29°36' W 090°43'2 3.4
2017-Dec-11 00:30N 29°34' W 090°43'2 4.1
2017-Dec-11 00:00N 29°33' W 090°45'0 0.5
2017-Dec-10 23:30N 29°33' W 090°45'0 0.0
2017-Dec-10 23:00N 29°33' W 090°45'0 0.1
2017-Dec-10 22:30N 29°33' W 090°45'0 0.1
2017-Dec-10 22:00N 29°33' W 090°45'2 3.6
2017-Dec-10 21:30N 29°32' W 090°47'67 3.0
2017-Dec-09 23:27N 29°49' W 092°02'3 4.8
2017-Dec-09 22:52N 29°48' W 092°04'2 5.7
2017-Dec-09 22:30N 29°48' W 092°07'3 5.8
2017-Dec-09 22:00N 29°47' W 092°10'1 1.8
2017-Dec-09 21:30N 29°47' W 092°11'0 0.1
2017-Dec-09 21:00N 29°47' W 092°11'0 0.0
2017-Dec-09 20:30N 29°47' W 092°11'0 0.1
2017-Dec-09 20:00N 29°47' W 092°11'1 2.9
2017-Dec-09 19:30N 29°47' W 092°13'2 3.2
2017-Dec-09 19:00N 29°48' W 092°14'1 2.2
2017-Dec-09 18:30N 29°48' W 092°15'3 5.4
2017-Dec-09 18:00N 29°50' W 092°18'3 5.3
2017-Dec-09 17:29N 29°51' W 092°21'38 4.6
2017-Dec-09 09:16N 29°56' W 093°04'1 4.4
2017-Dec-09 09:00N 29°56' W 093°05'2 4.8
2017-Dec-09 08:30N 29°56' W 093°08'2 4.5
2017-Dec-09 08:00N 29°57' W 093°10'3 5.1
2017-Dec-09 07:30N 29°59' W 093°12'2 4.8
2017-Dec-09 07:00N 30°01' W 093°14'1 2.2
2017-Dec-09 06:30N 30°02' W 093°15'2 3.2
2017-Dec-09 06:00N 30°03' W 093°16'2 3.7
2017-Dec-09 05:30N 30°05' W 093°17'1 2.1
2017-Dec-09 05:00N 30°05' W 093°18'1 1.5
2017-Dec-09 04:30N 30°06' W 093°18'2 3.4
2017-Dec-09 04:00N 30°05' W 093°20'1 1.2
2017-Dec-09 03:30N 30°05' W 093°20'1 2.6
2017-Dec-09 03:00N 30°04' W 093°21'1 1.9
2017-Dec-09 02:30N 30°04' W 093°22'2 4.6
2017-Dec-09 02:00N 30°04' W 093°25'2 4.7
2017-Dec-09 01:30N 30°04' W 093°28'3 5.4
2017-Dec-09 01:00N 30°04' W 093°31'3 5.6
2017-Dec-09 00:30N 30°04' W 093°34'2 4.6
2017-Dec-09 00:00N 30°04' W 093°37'74 2.1
2017-Dec-07 12:54N 29°34' W 094°55'3 6.6
2017-Dec-07 12:30N 29°36' W 094°57'3 6.2
2017-Dec-07 12:00N 29°39' W 094°58'3 6.5
2017-Dec-07 11:30N 29°42' W 094°59'  

Dump ship's entire track history